Time;durP1;ratioP1;P1;durP2;ratioP2;P2;SDS_P1;SDS_P2;PMS_P1;PMS_P2;Temp;Humidity;BMP_temperature;BMP_pressure;BME280_temperature;BME280_humidity;BME280_pressure;Samples;Min_cycle;Max_cycle;Signal;HPM_P1;HPM_P2
2024/01/18 00:03:15;;;;;;;24.63;13.93;;;-0.50;99.90;;;;;;7343894;32;20114;-55
2024/01/18 00:07:17;;;;;;;23.12;14.20;;;-0.50;99.90;;;;;;7345688;32;20194;-54
2024/01/18 00:11:19;;;;;;;26.48;13.88;;;-0.40;99.90;;;;;;7340402;32;20189;-54
2024/01/18 00:15:21;;;;;;;27.60;14.38;;;-0.50;99.90;;;;;;7339838;32;20289;-56
2024/01/18 00:19:23;;;;;;;23.42;14.25;;;-0.40;99.90;;;;;;7339464;32;20104;-57
2024/01/18 00:23:25;;;;;;;26.00;14.48;;;-0.40;99.90;;;;;;7342608;32;20445;-56
2024/01/18 00:27:27;;;;;;;25.00;13.82;;;-0.50;99.90;;;;;;7337672;32;20572;-55
2024/01/18 00:31:28;;;;;;;22.20;13.70;;;-0.40;99.90;;;;;;7326144;32;20115;-57
2024/01/18 00:35:30;;;;;;;24.30;14.05;;;-0.50;99.90;;;;;;7349422;32;20202;-55
2024/01/18 00:39:32;;;;;;;24.70;13.73;;;-0.40;99.90;;;;;;7339245;32;20103;-53
2024/01/18 00:43:34;;;;;;;26.02;14.90;;;-0.40;99.90;;;;;;7339488;32;20194;-55
2024/01/18 00:47:36;;;;;;;25.75;14.60;;;-0.40;99.90;;;;;;7346928;32;20135;-55
2024/01/18 00:51:38;;;;;;;20.12;13.73;;;-0.40;99.90;;;;;;7340766;32;20732;-55
2024/01/18 00:55:40;;;;;;;27.05;14.23;;;-0.40;99.90;;;;;;7340269;32;20096;-55
2024/01/18 00:59:42;;;;;;;28.25;15.15;;;-0.60;99.90;;;;;;7342915;32;20908;-55
2024/01/18 01:03:44;;;;;;;20.70;12.77;;;-0.50;99.90;;;;;;7346011;32;20596;-55
2024/01/18 01:07:46;;;;;;;24.92;14.20;;;-0.60;99.90;;;;;;7337890;32;20095;-55
2024/01/18 01:11:47;;;;;;;24.98;14.07;;;-0.50;99.90;;;;;;7334347;32;20157;-55
2024/01/18 01:15:49;;;;;;;21.50;12.93;;;-0.60;99.90;;;;;;7342322;32;20112;-55
2024/01/18 01:19:51;;;;;;;22.13;13.52;;;-0.50;99.90;;;;;;7335553;32;20581;-55
2024/01/18 01:23:54;;;;;;;25.02;14.70;;;-0.50;99.90;;;;;;7346911;32;20180;-53
2024/01/18 01:27:55;;;;;;;23.08;14.18;;;-0.50;99.90;;;;;;7349083;32;20497;-56
2024/01/18 01:31:57;;;;;;;28.75;13.60;;;-0.50;99.90;;;;;;7349475;32;20112;-55
2024/01/18 01:35:59;;;;;;;25.27;14.90;;;-0.50;99.90;;;;;;7344223;32;20308;-55
2024/01/18 01:40:01;;;;;;;28.38;15.05;;;-0.50;99.90;;;;;;7346894;32;20190;-55
2024/01/18 01:44:03;;;;;;;25.67;14.75;;;-0.50;99.90;;;;;;7350575;32;20182;-55
2024/01/18 01:48:07;;;;;;;26.08;15.43;;;-0.60;99.90;;;;;;7342432;32;20125;-57
2024/01/18 01:52:09;;;;;;;22.73;14.05;;;-0.60;99.90;;;;;;7344619;32;20130;-54
2024/01/18 01:56:11;;;;;;;27.75;15.43;;;-0.60;99.90;;;;;;7346181;32;20154;-55
2024/01/18 02:00:14;;;;;;;22.73;14.45;;;-0.60;99.90;;;;;;7339220;32;20531;-55
2024/01/18 02:04:16;;;;;;;25.73;15.85;;;-0.60;99.90;;;;;;7343225;32;20118;-57
2024/01/18 02:08:18;;;;;;;27.45;15.18;;;-0.60;99.90;;;;;;7342357;32;20152;-54
2024/01/18 02:12:23;;;;;;;25.40;15.23;;;-0.60;99.90;;;;;;7351205;32;20117;-55
2024/01/18 02:16:25;;;;;;;29.95;14.50;;;-0.60;99.90;;;;;;7348197;32;20287;-55
2024/01/18 02:20:26;;;;;;;23.73;14.95;;;-0.60;99.90;;;;;;7349854;32;20115;-55
2024/01/18 02:24:35;;;;;;;23.30;14.02;;;-0.60;99.90;;;;;;7342230;32;20099;-55
2024/01/18 02:28:37;;;;;;;26.80;14.55;;;-0.60;99.90;;;;;;7350632;32;20107;-56
2024/01/18 02:32:39;;;;;;;24.60;14.10;;;-0.60;99.90;;;;;;7345948;32;20128;-55
2024/01/18 02:36:41;;;;;;;25.85;14.20;;;-0.60;99.90;;;;;;7350851;32;20232;-55
2024/01/18 02:40:43;;;;;;;24.40;13.98;;;-0.70;99.90;;;;;;7343976;32;20130;-54
2024/01/18 02:44:45;;;;;;;24.40;14.38;;;-0.70;99.90;;;;;;7346827;32;20258;-54
2024/01/18 02:48:47;;;;;;;25.17;15.35;;;-0.70;99.90;;;;;;7342771;32;20214;-55
2024/01/18 02:52:49;;;;;;;26.40;15.32;;;-0.60;99.90;;;;;;7343073;32;20187;-56
2024/01/18 02:56:51;;;;;;;25.75;14.50;;;-0.50;99.90;;;;;;7345818;32;20190;-53
2024/01/18 03:00:53;;;;;;;25.15;15.00;;;-0.40;99.90;;;;;;7345956;32;20129;-57
2024/01/18 03:04:55;;;;;;;25.62;14.75;;;-0.50;99.90;;;;;;7348962;32;20297;-55
2024/01/18 03:08:56;;;;;;;21.52;14.52;;;-0.50;99.90;;;;;;7351541;32;20209;-54
2024/01/18 03:12:58;;;;;;;23.60;13.90;;;-0.50;99.90;;;;;;7352424;32;20107;-57
2024/01/18 03:17:00;;;;;;;24.75;14.68;;;-0.60;99.90;;;;;;7343164;32;20468;-55
2024/01/18 03:21:06;;;;;;;20.92;14.35;;;-0.50;99.90;;;;;;7344531;32;20099;-55
2024/01/18 03:25:08;;;;;;;27.13;15.93;;;-0.60;99.90;;;;;;7344338;32;20771;-55
2024/01/18 03:29:09;;;;;;;27.95;16.52;;;-0.60;99.90;;;;;;7346886;32;20490;-54
2024/01/18 03:33:11;;;;;;;24.87;14.68;;;-0.60;99.90;;;;;;7349120;32;20566;-55
2024/01/18 03:37:13;;;;;;;24.90;16.23;;;-0.60;99.90;;;;;;7351219;32;20640;-54
2024/01/18 03:41:15;;;;;;;25.15;15.25;;;-0.60;99.90;;;;;;7346060;32;20119;-55
2024/01/18 03:45:17;;;;;;;24.65;15.82;;;-0.60;99.90;;;;;;7346079;32;20129;-54
2024/01/18 03:49:20;;;;;;;24.65;15.07;;;-0.60;99.90;;;;;;7336821;32;20163;-54
2024/01/18 03:53:22;;;;;;;22.00;14.93;;;-0.60;99.90;;;;;;7340322;32;20114;-56
2024/01/18 03:57:25;;;;;;;25.75;15.27;;;-0.60;99.90;;;;;;7338983;32;20161;-53
2024/01/18 04:01:33;;;;;;;27.08;16.25;;;-0.60;99.90;;;;;;7345091;32;20120;-55
2024/01/18 04:05:36;;;;;;;30.15;16.23;;;-0.60;99.90;;;;;;7347907;32;20130;-56
2024/01/18 04:09:38;;;;;;;28.35;15.65;;;-0.60;99.90;;;;;;7346348;32;20130;-55
2024/01/18 04:13:40;;;;;;;26.62;16.37;;;-0.60;99.90;;;;;;7338281;32;20535;-56
2024/01/18 04:17:42;;;;;;;26.40;15.48;;;-0.60;99.90;;;;;;7344336;32;20162;-55
2024/01/18 04:21:44;;;;;;;25.50;15.77;;;-0.50;99.90;;;;;;7342009;32;20180;-58
2024/01/18 04:25:47;;;;;;;26.37;15.55;;;-0.50;99.90;;;;;;7345331;32;20114;-60
2024/01/18 04:29:49;;;;;;;26.75;15.45;;;-0.50;99.90;;;;;;7346916;32;20215;-56
2024/01/18 04:33:51;;;;;;;27.58;15.82;;;-0.50;99.90;;;;;;7345720;32;20222;-57
2024/01/18 04:37:53;;;;;;;24.15;15.13;;;-0.50;99.90;;;;;;7344399;32;20481;-57
2024/01/18 04:41:55;;;;;;;26.25;14.70;;;-0.50;99.90;;;;;;7342975;32;20256;-57
2024/01/18 04:45:57;;;;;;;25.85;16.30;;;-0.50;99.90;;;;;;7347238;32;20123;-57
2024/01/18 04:49:59;;;;;;;27.52;16.25;;;-0.50;99.90;;;;;;7344463;32;20103;-56
2024/01/18 04:54:01;;;;;;;24.70;15.77;;;-0.40;99.90;;;;;;7344827;32;20237;-53
2024/01/18 04:58:03;;;;;;;25.73;15.38;;;-0.50;99.90;;;;;;7333843;32;20099;-58
2024/01/18 05:02:06;;;;;;;23.80;15.80;;;-0.50;99.90;;;;;;7340893;32;20129;-57
2024/01/18 05:06:09;;;;;;;26.45;16.40;;;-0.50;99.90;;;;;;7339630;32;20179;-57
2024/01/18 05:10:11;;;;;;;26.55;16.00;;;-0.50;99.90;;;;;;7342712;32;20613;-55
2024/01/18 05:14:13;;;;;;;23.50;15.90;;;-0.50;99.90;;;;;;7347383;32;20160;-58
2024/01/18 05:18:15;;;;;;;25.67;15.30;;;-0.60;99.90;;;;;;7345150;32;20226;-56
2024/01/18 05:22:19;;;;;;;27.25;15.95;;;-0.50;99.90;;;;;;7344267;32;20127;-57
2024/01/18 05:26:21;;;;;;;30.35;15.45;;;-0.50;99.90;;;;;;7347788;32;20213;-57
2024/01/18 05:30:23;;;;;;;28.77;16.77;;;-0.60;99.90;;;;;;7341475;32;20261;-57
2024/01/18 05:34:26;;;;;;;27.10;15.82;;;-0.60;99.90;;;;;;7339595;32;20126;-57
2024/01/18 05:38:32;;;;;;;26.98;15.32;;;-0.70;99.90;;;;;;7337421;32;20867;-58
2024/01/18 05:42:42;;;;;;;27.05;15.43;;;-0.70;99.90;;;;;;7326363;32;20248;-56
2024/01/18 05:46:44;;;;;;;23.85;16.23;;;-0.70;99.90;;;;;;7338091;32;20445;-54
2024/01/18 05:50:45;;;;;;;24.37;15.35;;;-0.80;99.90;;;;;;7344635;32;20397;-57
2024/01/18 05:54:47;;;;;;;27.35;16.00;;;-0.80;99.90;;;;;;7342990;32;20115;-57
2024/01/18 05:58:49;;;;;;;27.80;16.85;;;-0.90;99.90;;;;;;7339139;32;20112;-57
2024/01/18 06:02:51;;;;;;;28.80;15.82;;;-0.90;99.90;;;;;;7324582;32;20248;-57
2024/01/18 06:06:52;;;;;;;24.67;15.70;;;-1.00;99.90;;;;;;7344298;32;20135;-61
2024/01/18 06:10:54;;;;;;;29.20;15.40;;;-1.00;99.90;;;;;;7344634;32;20349;-56
2024/01/18 06:14:57;;;;;;;30.45;17.90;;;-1.00;99.90;;;;;;7342976;32;20164;-56
2024/01/18 06:18:59;;;;;;;49.35;26.40;;;-1.00;99.90;;;;;;7349503;32;20095;-56
2024/01/18 06:23:01;;;;;;;40.95;22.92;;;-1.10;99.90;;;;;;7348369;32;20194;-57
2024/01/18 06:27:03;;;;;;;37.22;21.33;;;-1.10;99.90;;;;;;7336938;32;20378;-56
2024/01/18 06:31:06;;;;;;;40.10;21.42;;;-1.00;99.90;;;;;;7344741;32;20170;-57
2024/01/18 06:35:07;;;;;;;36.33;20.12;;;-1.10;99.90;;;;;;7345240;32;20138;-56
2024/01/18 06:39:10;;;;;;;36.13;19.02;;;-1.10;99.90;;;;;;7350092;32;20115;-56
2024/01/18 06:43:13;;;;;;;34.50;18.33;;;-1.20;99.90;;;;;;7343424;32;20179;-56
2024/01/18 06:47:14;;;;;;;33.17;19.40;;;-1.20;99.90;;;;;;7343260;32;20143;-57
2024/01/18 06:51:17;;;;;;;36.00;19.90;;;-1.30;99.90;;;;;;7345671;32;20115;-55
2024/01/18 06:55:19;;;;;;;36.45;20.85;;;-1.30;99.90;;;;;;7342196;32;20108;-56
2024/01/18 06:59:20;;;;;;;30.77;20.37;;;-1.40;99.90;;;;;;7345956;32;20121;-56
2024/01/18 07:03:22;;;;;;;28.00;17.02;;;-1.60;99.90;;;;;;7344333;32;20122;-56
2024/01/18 07:07:25;;;;;;;29.95;16.15;;;-1.60;99.90;;;;;;7342147;32;20122;-56
2024/01/18 07:11:27;;;;;;;26.65;15.23;;;-1.80;99.90;;;;;;7348392;32;20241;-56
2024/01/18 07:15:29;;;;;;;23.27;15.15;;;-1.80;99.90;;;;;;7343605;32;20501;-57
2024/01/18 07:19:30;;;;;;;25.25;15.77;;;-1.90;99.90;;;;;;7342947;32;20241;-58
2024/01/18 07:23:32;;;;;;;33.45;16.75;;;-2.00;99.90;;;;;;7345811;32;20107;-56
2024/01/18 07:27:34;;;;;;;28.20;15.80;;;-2.20;99.90;;;;;;7339596;32;20796;-56
2024/01/18 07:31:36;;;;;;;25.92;15.80;;;-2.30;99.90;;;;;;7343530;32;20284;-57
2024/01/18 07:35:38;;;;;;;26.67;16.23;;;-2.50;99.90;;;;;;7345236;32;20135;-57
2024/01/18 07:39:42;;;;;;;23.58;15.35;;;-2.50;99.90;;;;;;7347612;32;20156;-58
2024/01/18 07:43:44;;;;;;;32.55;18.92;;;-2.60;99.90;;;;;;7346973;32;20581;-57
2024/01/18 07:47:46;;;;;;;30.35;15.23;;;-2.70;99.90;;;;;;7344924;32;20618;-56
2024/01/18 07:51:50;;;;;;;25.73;14.85;;;-2.80;99.90;;;;;;7342723;32;20150;-56
2024/01/18 07:55:52;;;;;;;27.30;16.35;;;-2.80;99.90;;;;;;7338856;32;20229;-56
2024/01/18 07:59:54;;;;;;;32.33;16.40;;;-2.80;99.90;;;;;;7343523;32;20115;-58
2024/01/18 08:03:55;;;;;;;28.45;16.62;;;-2.90;99.90;;;;;;7338216;32;20107;-57
2024/01/18 08:07:57;;;;;;;24.02;15.27;;;-2.90;99.90;;;;;;7346444;32;20741;-56
2024/01/18 08:11:59;;;;;;;28.40;14.87;;;-3.00;99.90;;;;;;7340222;32;20111;-56
2024/01/18 08:16:01;;;;;;;25.23;15.40;;;-3.10;99.90;;;;;;7343881;32;20189;-56
2024/01/18 08:20:13;;;;;;;24.27;15.38;;;-3.00;99.90;;;;;;7329931;32;20189;-56
2024/01/18 08:24:16;;;;;;;23.70;15.25;;;-3.10;99.90;;;;;;7344456;32;20103;-56
2024/01/18 08:28:18;;;;;;;24.02;15.50;;;-3.10;99.90;;;;;;7327779;32;20625;-57
2024/01/18 08:32:19;;;;;;;25.80;16.10;;;-3.20;99.90;;;;;;7347757;32;20172;-56
2024/01/18 08:36:21;;;;;;;31.95;16.80;;;-3.10;99.90;;;;;;7333667;32;20671;-58
2024/01/18 08:40:23;;;;;;;27.42;15.95;;;-3.20;99.90;;;;;;7330133;32;20134;-57
2024/01/18 08:44:28;;;;;;;28.25;16.70;;;-3.10;99.90;;;;;;7336670;32;20576;-57
2024/01/18 08:48:30;;;;;;;29.90;15.50;;;-3.10;99.90;;;;;;7328966;32;20168;-57
2024/01/18 08:52:32;;;;;;;28.83;15.85;;;-3.00;99.90;;;;;;7342979;32;20127;-57
2024/01/18 08:56:35;;;;;;;29.02;17.67;;;-3.00;99.90;;;;;;7342316;32;20143;-57
2024/01/18 09:00:38;;;;;;;25.10;16.60;;;-3.00;99.90;;;;;;7342790;32;20254;-57
2024/01/18 09:04:40;;;;;;;30.42;16.40;;;-3.00;99.90;;;;;;7339165;32;20327;-56
2024/01/18 09:08:43;;;;;;;27.42;16.75;;;-3.00;99.90;;;;;;7340152;32;20812;-56
2024/01/18 09:12:45;;;;;;;30.33;18.95;;;-2.90;99.90;;;;;;7337691;32;20205;-57
2024/01/18 09:16:47;;;;;;;35.00;20.05;;;-2.80;99.90;;;;;;7334128;32;20197;-56
2024/01/18 09:20:49;;;;;;;50.30;27.15;;;-2.70;99.90;;;;;;7344281;32;20235;-57
2024/01/18 09:24:51;;;;;;;40.75;24.45;;;-2.60;99.90;;;;;;7338832;32;20721;-57
2024/01/18 09:28:57;;;;;;;33.53;19.98;;;-2.50;99.90;;;;;;7338909;32;20252;-57
2024/01/18 09:32:59;;;;;;;32.17;19.85;;;-2.40;99.90;;;;;;7345852;32;20150;-56
2024/01/18 09:37:02;;;;;;;29.33;18.95;;;-2.30;99.90;;;;;;7343625;32;20154;-56
2024/01/18 09:41:07;;;;;;;33.83;21.40;;;-2.30;99.90;;;;;;7339483;32;20603;-57
2024/01/18 09:45:13;;;;;;;33.13;19.37;;;-2.10;99.90;;;;;;7344780;32;20343;-57
2024/01/18 09:49:16;;;;;;;31.23;19.70;;;-1.90;99.90;;;;;;7344358;32;20170;-56
2024/01/18 09:53:18;;;;;;;28.98;19.95;;;-1.80;99.90;;;;;;7340412;32;20272;-57
2024/01/18 09:57:30;;;;;;;34.40;19.83;;;-1.70;99.90;;;;;;7346221;32;20485;-57
2024/01/18 10:01:32;;;;;;;30.02;18.17;;;-1.60;99.90;;;;;;7345308;32;20298;-57
2024/01/18 10:05:34;;;;;;;26.65;18.15;;;-1.50;99.90;;;;;;7344481;32;20107;-57
2024/01/18 10:09:36;;;;;;;30.58;18.87;;;-1.50;99.90;;;;;;7346421;32;20206;-56
2024/01/18 10:14:07;;;;;;;29.35;18.23;;;-1.40;99.90;;;;;;7344382;32;20558;-57
2024/01/18 10:18:09;;;;;;;28.30;17.58;;;-1.30;99.90;;;;;;7338927;32;20588;-57
2024/01/18 10:22:11;;;;;;;31.30;17.80;;;-1.10;99.90;;;;;;7345157;32;20222;-57
2024/01/18 10:26:13;;;;;;;27.60;17.60;;;-1.00;99.90;;;;;;7345605;32;20528;-57
2024/01/18 10:30:15;;;;;;;27.80;17.45;;;-0.90;99.90;;;;;;7344204;32;20512;-57
2024/01/18 10:34:17;;;;;;;25.08;17.30;;;-0.90;99.90;;;;;;7344791;32;20199;-57
2024/01/18 10:38:27;;;;;;;32.72;18.15;;;-0.70;99.90;;;;;;7349721;32;20192;-56
2024/01/18 10:42:29;;;;;;;30.50;18.37;;;-0.50;99.90;;;;;;7348660;32;20143;-57
2024/01/18 10:46:31;;;;;;;28.98;18.00;;;-0.50;99.90;;;;;;7350254;32;20095;-56
2024/01/18 10:50:33;;;;;;;23.95;14.73;;;-0.50;99.90;;;;;;7334811;32;20268;-57
2024/01/18 10:54:37;;;;;;;20.33;12.57;;;-0.40;99.90;;;;;;7340864;32;20591;-57
2024/01/18 10:58:45;;;;;;;20.48;12.60;;;-0.20;99.90;;;;;;7350544;32;20103;-56
2024/01/18 11:02:47;;;;;;;24.02;14.07;;;-0.30;99.90;;;;;;7340632;32;20492;-58
2024/01/18 11:06:49;;;;;;;29.37;14.95;;;-0.10;99.90;;;;;;7345083;32;20195;-58
2024/01/18 11:10:52;;;;;;;29.45;17.10;;;0.10;99.90;;;;;;7348057;32;20224;-57
2024/01/18 11:14:54;;;;;;;23.17;16.25;;;0.20;99.90;;;;;;7347579;32;20104;-57
2024/01/18 11:19:00;;;;;;;22.13;14.07;;;0.20;99.90;;;;;;7343074;32;20369;-58
2024/01/18 11:23:03;;;;;;;21.52;13.05;;;0.40;99.90;;;;;;7346518;32;20175;-57
2024/01/18 11:27:23;;;;;;;25.62;14.27;;;0.40;99.90;;;;;;7349168;32;20499;-57
2024/01/18 11:31:45;;;;;;;28.87;15.68;;;0.50;99.90;;;;;;7343476;32;20189;-56
2024/01/18 11:35:48;;;;;;;30.73;17.50;;;0.60;99.90;;;;;;7344410;32;20103;-57
2024/01/18 11:39:50;;;;;;;33.63;16.48;;;0.70;99.90;;;;;;7349110;32;20548;-57
2024/01/18 11:44:10;;;;;;;27.27;13.77;;;0.70;99.90;;;;;;7342888;32;20618;-56
2024/01/18 11:48:13;;;;;;;23.12;12.07;;;0.80;99.90;;;;;;7345636;32;20213;-57
2024/01/18 11:52:16;;;;;;;19.30;11.00;;;1.00;99.90;;;;;;7337553;32;20111;-57
2024/01/18 11:56:19;;;;;;;17.23;9.70;;;1.00;99.90;;;;;;7340175;32;20222;-56
2024/01/18 12:00:21;;;;;;;17.30;9.45;;;1.00;99.90;;;;;;7338585;32;20150;-56
2024/01/18 12:04:23;;;;;;;17.83;9.95;;;1.00;99.90;;;;;;7339167;32;20304;-55
2024/01/18 12:08:25;;;;;;;17.45;10.38;;;1.20;99.90;;;;;;7337832;32;20159;-56
2024/01/18 12:12:28;;;;;;;15.25;9.38;;;1.30;99.90;;;;;;7339848;32;20145;-57
2024/01/18 12:16:30;;;;;;;14.98;8.35;;;1.50;99.90;;;;;;7336093;32;20335;-56
2024/01/18 12:20:35;;;;;;;15.18;7.57;;;1.50;99.90;;;;;;7339506;32;20971;-56
2024/01/18 12:24:39;;;;;;;15.18;7.60;;;1.50;99.90;;;;;;7342249;32;20202;-56
2024/01/18 12:28:41;;;;;;;13.48;7.15;;;1.60;99.90;;;;;;7341207;32;20131;-56
2024/01/18 12:32:43;;;;;;;16.70;7.25;;;1.60;99.90;;;;;;7327740;32;20212;-57
2024/01/18 12:36:46;;;;;;;17.85;7.47;;;1.60;99.90;;;;;;7339587;32;20111;-57
2024/01/18 12:40:48;;;;;;;17.15;6.78;;;1.70;99.90;;;;;;7336085;32;20131;-57
2024/01/18 12:44:52;;;;;;;11.95;6.28;;;1.80;99.90;;;;;;7340776;32;20127;-56
2024/01/18 12:48:54;;;;;;;11.27;6.03;;;1.90;99.90;;;;;;7338806;32;20124;-56
2024/01/18 12:52:55;;;;;;;11.32;5.70;;;1.80;99.90;;;;;;7340232;32;20174;-56
2024/01/18 12:57:05;;;;;;;25.85;14.40;;;1.80;99.90;;;;;;7340344;32;20205;-56
2024/01/18 13:01:07;;;;;;;8.38;4.68;;;1.90;99.90;;;;;;7337301;32;21381;-56
2024/01/18 13:05:14;;;;;;;7.20;4.32;;;1.80;99.90;;;;;;7342736;32;20221;-56
2024/01/18 13:09:20;;;;;;;11.57;4.72;;;1.90;99.90;;;;;;7341609;32;20203;-57
2024/01/18 13:13:22;;;;;;;15.07;4.87;;;2.00;99.90;;;;;;7334150;32;20166;-59
2024/01/18 13:17:24;;;;;;;12.15;4.50;;;2.00;99.90;;;;;;7337693;32;20245;-56
2024/01/18 13:21:25;;;;;;;10.43;4.18;;;2.10;99.90;;;;;;7339828;32;20139;-58
2024/01/18 13:25:27;;;;;;;7.78;4.18;;;2.10;99.90;;;;;;7335316;32;20126;-57
2024/01/18 13:29:29;;;;;;;8.88;4.12;;;2.20;99.90;;;;;;7333228;32;20131;-57
2024/01/18 13:33:31;;;;;;;7.22;3.67;;;2.30;99.90;;;;;;7337777;32;20626;-57
2024/01/18 13:37:33;;;;;;;7.50;3.85;;;2.40;99.90;;;;;;7332468;32;20198;-58
2024/01/18 13:41:35;;;;;;;10.57;3.78;;;2.60;99.90;;;;;;7334984;32;20509;-57
2024/01/18 13:45:37;;;;;;;13.18;4.12;;;2.90;99.90;;;;;;7332272;32;20431;-56
2024/01/18 13:49:39;;;;;;;6.25;3.40;;;3.10;99.90;;;;;;7333551;32;20583;-58
2024/01/18 13:53:41;;;;;;;9.57;3.65;;;3.50;99.90;;;;;;7329022;32;20115;-59
2024/01/18 13:57:44;;;;;;;9.15;3.75;;;3.60;99.90;;;;;;7334275;32;20285;-58
2024/01/18 14:01:45;;;;;;;6.70;2.72;;;3.70;99.90;;;;;;7338716;32;20135;-58
2024/01/18 14:05:47;;;;;;;6.85;2.90;;;3.70;99.90;;;;;;7335400;32;20145;-59
2024/01/18 14:09:49;;;;;;;6.40;2.40;;;3.60;99.90;;;;;;7332190;32;20142;-58
2024/01/18 14:13:51;;;;;;;4.85;2.58;;;3.50;99.90;;;;;;7335277;32;20193;-58
2024/01/18 14:17:53;;;;;;;6.90;2.08;;;3.70;99.90;;;;;;7338022;32;20458;-57
2024/01/18 14:21:54;;;;;;;7.12;2.08;;;3.70;99.90;;;;;;7335620;32;20108;-58
2024/01/18 14:25:57;;;;;;;4.22;2.10;;;3.50;99.90;;;;;;7338326;32;20135;-59
2024/01/18 14:29:59;;;;;;;5.37;2.17;;;3.40;99.90;;;;;;7333642;32;20158;-58
2024/01/18 14:34:00;;;;;;;6.37;2.10;;;3.20;99.90;;;;;;7344565;32;20867;-59
2024/01/18 14:38:03;;;;;;;7.45;2.30;;;3.20;99.90;;;;;;7341590;32;20103;-58
2024/01/18 14:42:05;;;;;;;4.93;2.15;;;3.10;99.90;;;;;;7339690;32;21070;-57
2024/01/18 14:46:07;;;;;;;8.13;2.58;;;3.10;99.90;;;;;;7343928;32;20128;-56
2024/01/18 14:50:09;;;;;;;5.57;2.20;;;2.90;99.90;;;;;;7347872;32;20168;-58
2024/01/18 14:54:11;;;;;;;4.45;2.05;;;2.80;99.90;;;;;;7341572;32;20412;-59
2024/01/18 14:58:13;;;;;;;6.87;2.33;;;2.50;99.90;;;;;;7339275;32;20369;-56
2024/01/18 15:02:15;;;;;;;7.40;2.25;;;2.50;99.90;;;;;;7343037;32;20182;-58
2024/01/18 15:06:17;;;;;;;4.20;2.08;;;2.40;99.90;;;;;;7334738;32;20586;-57
2024/01/18 15:10:19;;;;;;;6.05;1.58;;;2.40;99.90;;;;;;7342523;32;20195;-57
2024/01/18 15:14:21;;;;;;;5.43;2.03;;;2.40;99.90;;;;;;7340981;32;20253;-57
2024/01/18 15:18:23;;;;;;;3.80;1.95;;;2.20;99.90;;;;;;7345395;32;20186;-62
2024/01/18 15:22:25;;;;;;;7.75;1.90;;;2.00;99.90;;;;;;7343346;32;20486;-57
2024/01/18 15:26:26;;;;;;;4.53;1.77;;;1.90;99.90;;;;;;7338328;32;20272;-55
2024/01/18 15:30:28;;;;;;;4.47;1.92;;;1.90;99.90;;;;;;7336577;32;20127;-57
2024/01/18 15:34:30;;;;;;;5.82;1.90;;;1.80;99.90;;;;;;7340067;32;20167;-57
2024/01/18 15:38:36;;;;;;;5.57;1.63;;;1.80;99.90;;;;;;7344262;32;20122;-58
2024/01/18 15:42:38;;;;;;;7.78;1.70;;;1.70;99.90;;;;;;7350788;32;20099;-58
2024/01/18 15:46:47;;;;;;;5.12;1.70;;;1.40;99.90;;;;;;7346138;32;20258;-57
2024/01/18 15:50:49;;;;;;;7.07;2.12;;;1.40;99.90;;;;;;7334146;32;20127;-59
2024/01/18 15:54:50;;;;;;;8.55;2.20;;;1.40;99.90;;;;;;7339728;32;20130;-60
2024/01/18 15:58:52;;;;;;;8.23;1.60;;;1.40;99.90;;;;;;7333670;32;20478;-56
2024/01/18 16:02:54;;;;;;;4.07;1.12;;;1.50;99.90;;;;;;7340585;32;20773;-57
2024/01/18 16:06:56;;;;;;;5.37;1.50;;;1.50;99.90;;;;;;7341841;32;20280;-58
2024/01/18 16:10:58;;;;;;;3.22;1.25;;;1.60;99.90;;;;;;7338481;32;20111;-56
2024/01/18 16:15:04;;;;;;;6.95;1.60;;;1.50;99.90;;;;;;7345913;32;20229;-56
2024/01/18 16:19:06;;;;;;;6.43;1.48;;;1.60;99.90;;;;;;7339532;32;20556;-59
2024/01/18 16:23:08;;;;;;;6.90;2.03;;;1.60;99.90;;;;;;7341544;32;20136;-58
2024/01/18 16:27:12;;;;;;;4.45;1.70;;;1.60;99.90;;;;;;7337774;32;20506;-58
2024/01/18 16:31:14;;;;;;;7.28;1.90;;;1.60;99.90;;;;;;7341039;32;20254;-57
2024/01/18 16:35:16;;;;;;;6.05;1.67;;;1.50;99.90;;;;;;7344823;32;20198;-56
2024/01/18 16:39:18;;;;;;;4.75;2.12;;;1.60;99.90;;;;;;7342358;32;20490;-57
2024/01/18 16:43:20;;;;;;;6.45;2.78;;;1.50;99.90;;;;;;7343461;32;20219;-56
2024/01/18 16:47:21;;;;;;;9.48;2.60;;;1.50;99.90;;;;;;7338015;32;20171;-57
2024/01/18 16:51:24;;;;;;;5.80;2.22;;;1.30;99.90;;;;;;7344503;32;20174;-57
2024/01/18 16:55:25;;;;;;;3.95;1.75;;;1.20;99.90;;;;;;7344125;32;20237;-57
2024/01/18 16:59:27;;;;;;;6.32;1.87;;;1.00;99.90;;;;;;7345076;32;20142;-57
2024/01/18 17:03:30;;;;;;;6.32;1.48;;;0.90;99.90;;;;;;7341560;32;20191;-56
2024/01/18 17:07:35;;;;;;;3.80;1.33;;;0.80;99.90;;;;;;7340193;32;20123;-57
2024/01/18 17:11:37;;;;;;;6.65;1.70;;;0.80;99.90;;;;;;7335216;32;20100;-57
2024/01/18 17:15:39;;;;;;;4.37;1.40;;;0.90;99.90;;;;;;7340652;32;20167;-57
2024/01/18 17:19:40;;;;;;;9.00;1.52;;;0.90;99.90;;;;;;7343045;32;20156;-58
2024/01/18 17:23:42;;;;;;;3.08;1.48;;;1.00;99.90;;;;;;7341530;32;20525;-57
2024/01/18 17:27:44;;;;;;;4.37;1.30;;;1.00;99.90;;;;;;7338313;32;20219;-56
2024/01/18 17:31:47;;;;;;;4.40;1.40;;;1.20;99.90;;;;;;7339828;32;20182;-57
2024/01/18 17:35:49;;;;;;;4.15;2.20;;;1.30;99.90;;;;;;7343087;32;20541;-57
2024/01/18 17:39:51;;;;;;;6.47;2.40;;;1.30;99.90;;;;;;7337418;32;20119;-56
2024/01/18 17:43:52;;;;;;;6.12;2.87;;;1.20;99.90;;;;;;7340301;32;20111;-57
2024/01/18 17:47:54;;;;;;;8.07;3.05;;;1.20;99.90;;;;;;7343690;32;20290;-57
2024/01/18 17:51:56;;;;;;;9.68;3.15;;;1.30;99.90;;;;;;7338539;32;20114;-57
2024/01/18 17:56:00;;;;;;;9.63;3.17;;;1.30;99.90;;;;;;7337922;32;20099;-57
2024/01/18 18:00:05;;;;;;;6.93;3.10;;;1.30;99.90;;;;;;7340069;32;20118;-57
2024/01/18 18:04:07;;;;;;;8.43;3.35;;;1.30;99.90;;;;;;7337329;32;20107;-57
2024/01/18 18:08:09;;;;;;;5.75;2.50;;;1.40;99.90;;;;;;7341221;32;20111;-57
2024/01/18 18:12:11;;;;;;;13.32;5.12;;;1.30;99.90;;;;;;7345201;32;20112;-57
2024/01/18 18:16:14;;;;;;;9.30;4.18;;;1.40;99.90;;;;;;7334337;32;20130;-56
2024/01/18 18:20:16;;;;;;;9.52;3.83;;;1.30;99.90;;;;;;7338811;32;20523;-56
2024/01/18 18:24:18;;;;;;;11.60;4.07;;;1.20;99.90;;;;;;7348347;32;20161;-58
2024/01/18 18:28:19;;;;;;;9.95;4.57;;;1.10;99.90;;;;;;7346422;32;20231;-56
2024/01/18 18:32:21;;;;;;;10.13;4.07;;;1.10;99.90;;;;;;7342634;32;20237;-57
2024/01/18 18:36:23;;;;;;;11.30;4.50;;;1.00;99.90;;;;;;7343274;32;20341;-57
2024/01/18 18:40:26;;;;;;;9.65;4.57;;;1.00;99.90;;;;;;7344390;32;20123;-57
2024/01/18 18:44:28;;;;;;;11.43;5.32;;;0.80;99.90;;;;;;7339285;32;20125;-57
2024/01/18 18:48:30;;;;;;;12.20;6.40;;;0.70;99.90;;;;;;7342831;32;20111;-63
2024/01/18 18:52:33;;;;;;;13.15;7.03;;;0.50;99.90;;;;;;7342746;32;20198;-56
2024/01/18 18:56:35;;;;;;;15.35;8.88;;;0.40;99.90;;;;;;7343208;32;20600;-56
2024/01/18 19:00:37;;;;;;;14.23;8.02;;;0.40;99.90;;;;;;7344399;32;20313;-59
2024/01/18 19:04:39;;;;;;;17.80;8.52;;;0.60;99.90;;;;;;7342933;32;20234;-58
2024/01/18 19:08:41;;;;;;;18.75;9.85;;;0.50;99.90;;;;;;7340063;32;20213;-57
2024/01/18 19:12:43;;;;;;;16.75;10.98;;;0.60;99.90;;;;;;7346358;32;20153;-56
2024/01/18 19:16:45;;;;;;;22.37;13.23;;;0.70;99.90;;;;;;7338279;32;20232;-58
2024/01/18 19:20:46;;;;;;;19.50;11.90;;;0.70;99.90;;;;;;7342492;32;20329;-56
2024/01/18 19:24:48;;;;;;;23.15;11.95;;;0.60;99.90;;;;;;7344622;32;20131;-56
2024/01/18 19:28:50;;;;;;;20.98;12.18;;;0.50;99.90;;;;;;7345759;32;20233;-55
2024/01/18 19:32:52;;;;;;;22.30;12.50;;;0.40;99.90;;;;;;7346609;32;20111;-56
2024/01/18 19:36:54;;;;;;;22.52;11.57;;;0.30;99.90;;;;;;7348141;32;20566;-54
2024/01/18 19:41:01;;;;;;;29.37;14.30;;;0.20;99.90;;;;;;7342975;32;20753;-55
2024/01/18 19:45:03;;;;;;;22.58;13.05;;;0.10;99.90;;;;;;7346534;32;20522;-55
2024/01/18 19:49:05;;;;;;;21.70;12.98;;;-0.20;99.90;;;;;;7344204;32;20232;-53
2024/01/18 19:53:07;;;;;;;24.50;14.90;;;-0.20;99.90;;;;;;7348256;32;20252;-55
2024/01/18 19:57:09;;;;;;;22.77;13.40;;;-0.30;99.90;;;;;;7345628;32;20183;-55
2024/01/18 20:01:11;;;;;;;22.92;13.15;;;-0.40;99.90;;;;;;7340945;32;20112;-55
2024/01/18 20:05:13;;;;;;;22.95;13.55;;;-0.50;99.90;;;;;;7346572;32;20441;-56
2024/01/18 20:09:15;;;;;;;23.60;14.50;;;-0.60;99.90;;;;;;7344169;32;20103;-57
2024/01/18 20:13:17;;;;;;;22.62;13.82;;;-0.70;99.90;;;;;;7343798;32;20134;-58
2024/01/18 20:17:19;;;;;;;23.70;14.68;;;-0.80;99.90;;;;;;7328342;32;20146;-57
2024/01/18 20:21:21;;;;;;;27.87;15.05;;;-0.80;99.90;;;;;;7344548;32;20524;-58
2024/01/18 20:25:24;;;;;;;23.17;14.38;;;-0.90;99.90;;;;;;7344261;32;20204;-57
2024/01/18 20:29:26;;;;;;;21.05;13.48;;;-1.00;99.90;;;;;;7344984;32;20225;-57
2024/01/18 20:33:28;;;;;;;20.50;13.98;;;-1.10;99.90;;;;;;7342564;32;20834;-56
2024/01/18 20:37:31;;;;;;;25.75;14.32;;;-1.10;99.90;;;;;;7344174;32;20150;-56
2024/01/18 20:41:33;;;;;;;25.58;14.55;;;-1.20;99.90;;;;;;7342620;32;20204;-56
2024/01/18 20:45:35;;;;;;;24.05;13.70;;;-1.30;99.90;;;;;;7341374;32;20214;-56